createdAt,value
2018-04-17T00:00:10.757Z,23.80
2018-04-17T00:00:47.174Z,31.30
2018-04-17T00:01:22.741Z,36.60
2018-04-17T00:01:57.845Z,32.00
2018-04-17T00:02:33.067Z,24.40
2018-04-17T00:03:08.396Z,25.80
2018-04-17T00:03:43.930Z,28.00
2018-04-17T00:04:19.114Z,31.70
2018-04-17T00:04:54.689Z,27.00
2018-04-17T00:05:30.995Z,29.10
2018-04-17T00:06:06.527Z,22.00
2018-04-17T00:06:41.852Z,21.30
2018-04-17T00:07:17.073Z,24.60
2018-04-17T00:07:52.478Z,24.10
2018-04-17T00:08:27.900Z,26.30
2018-04-17T00:09:03.511Z,23.50
2018-04-17T00:09:39.257Z,26.40
2018-04-17T00:10:15.677Z,25.80
2018-04-17T00:10:51.392Z,26.00
2018-04-17T00:11:26.833Z,25.00
2018-04-17T00:12:02.285Z,21.60
2018-04-17T00:12:37.687Z,27.50
2018-04-17T00:13:13.115Z,24.30
2018-04-17T00:13:48.340Z,22.20
2018-04-17T00:14:23.582Z,19.60
2018-04-17T00:14:59.030Z,22.70
2018-04-17T00:15:34.667Z,30.30
2018-04-17T00:16:11.679Z,38.60
2018-04-17T00:16:47.219Z,31.80
2018-04-17T00:17:22.422Z,23.70
2018-04-17T00:17:59.058Z,18.40
2018-04-17T00:18:34.570Z,20.50
2018-04-17T00:19:10.298Z,23.40
2018-04-17T00:19:45.604Z,28.40
2018-04-17T00:20:20.929Z,25.60
2018-04-17T00:20:56.315Z,20.50
2018-04-17T00:21:31.893Z,22.40
2018-04-17T00:22:07.399Z,27.40
2018-04-17T00:22:43.847Z,29.00
2018-04-17T00:23:19.249Z,29.20
2018-04-17T00:23:54.684Z,27.10
2018-04-17T00:24:30.089Z,27.00
2018-04-17T00:25:05.522Z,33.70
2018-04-17T00:25:40.936Z,33.50
2018-04-17T00:26:16.481Z,26.20
2018-04-17T00:26:52.807Z,21.40
2018-04-17T00:27:28.124Z,24.10
2018-04-17T00:28:03.972Z,28.60
2018-04-17T00:28:39.410Z,26.20
2018-04-17T00:29:15.346Z,25.30
2018-04-17T00:29:50.583Z,27.30
2018-04-17T00:30:27.681Z,30.20
2018-04-17T00:31:03.220Z,27.40
2018-04-17T00:31:39.369Z,30.00
2018-04-17T00:32:14.929Z,31.50
2018-04-17T00:32:50.146Z,27.10
2018-04-17T00:33:25.476Z,26.10
2018-04-17T00:34:00.864Z,26.10
2018-04-17T00:34:36.192Z,26.10
2018-04-17T00:35:11.803Z,21.70
2018-04-17T00:35:47.122Z,27.40
2018-04-17T00:36:22.232Z,25.00
2018-04-17T00:36:57.478Z,21.30
2018-04-17T00:37:34.269Z,23.50
2018-04-17T00:38:09.420Z,25.40
2018-04-17T00:38:44.727Z,22.60
2018-04-17T00:39:19.960Z,24.50
2018-04-17T00:39:55.258Z,25.60
2018-04-17T00:40:30.411Z,25.80
2018-04-17T00:41:05.417Z,28.70
2018-04-17T00:41:41.108Z,29.20
2018-04-17T00:42:16.463Z,27.00
2018-04-17T00:42:51.882Z,26.90
2018-04-17T00:43:27.212Z,26.70
2018-04-17T00:44:02.427Z,26.40
2018-04-17T00:44:38.246Z,34.70
2018-04-17T00:45:13.621Z,34.00
2018-04-17T00:45:50.232Z,27.10
2018-04-17T00:46:25.850Z,25.20
2018-04-17T00:47:01.088Z,25.20
2018-04-17T00:47:36.330Z,31.10
2018-04-17T00:48:11.815Z,30.20
2018-04-17T00:48:47.177Z,29.10
2018-04-17T00:49:22.771Z,31.60
2018-04-17T00:49:58.108Z,30.60
2018-04-17T00:50:33.809Z,31.20
2018-04-17T00:51:09.254Z,29.90
2018-04-17T00:51:45.008Z,27.70
2018-04-17T00:52:20.243Z,32.10
2018-04-17T00:52:55.648Z,27.20
2018-04-17T00:53:30.818Z,30.00
2018-04-17T00:54:06.327Z,27.30
2018-04-17T00:54:42.751Z,23.30
2018-04-17T00:55:17.970Z,27.50
2018-04-17T00:55:53.105Z,32.00
2018-04-17T00:56:28.895Z,28.20
2018-04-17T00:57:04.484Z,33.90
2018-04-17T00:57:39.807Z,31.40
2018-04-17T00:58:15.438Z,24.10
2018-04-17T00:58:50.728Z,24.80
2018-04-17T00:59:26.038Z,32.40
2018-04-17T01:00:01.560Z,27.20
2018-04-17T01:00:37.995Z,31.40
2018-04-17T01:01:13.314Z,33.80
2018-04-17T01:01:48.750Z,37.30
2018-04-17T01:02:24.176Z,36.00
2018-04-17T01:02:59.599Z,30.30
2018-04-17T01:03:34.881Z,26.80
2018-04-17T01:04:10.414Z,29.00
2018-04-17T01:04:45.617Z,33.40
2018-04-17T01:05:22.843Z,26.30
2018-04-17T01:05:58.480Z,27.70
2018-04-17T01:06:35.414Z,31.60
2018-04-17T01:07:10.849Z,26.50
2018-04-17T01:07:46.171Z,24.10
2018-04-17T01:08:21.478Z,29.40
2018-04-17T01:08:56.917Z,33.70
2018-04-17T01:09:32.209Z,29.90
2018-04-17T01:10:07.646Z,26.20
2018-04-17T01:10:42.845Z,32.40
2018-04-17T01:11:21.272Z,29.00
2018-04-17T01:11:56.680Z,26.30
2018-04-17T01:12:32.233Z,31.10
2018-04-17T01:13:07.425Z,29.40
2018-04-17T01:13:42.862Z,25.70
2018-04-17T01:14:18.492Z,27.10
2018-04-17T01:14:53.726Z,27.70
2018-04-17T01:15:29.041Z,30.50
2018-04-17T01:16:05.154Z,26.50
2018-04-17T01:16:41.459Z,26.20
2018-04-17T01:17:17.008Z,28.00
2018-04-17T01:17:52.406Z,23.50
2018-04-17T01:18:28.136Z,23.90
2018-04-17T01:19:03.445Z,25.60
2018-04-17T01:19:38.789Z,25.00
2018-04-17T01:20:13.980Z,29.30
2018-04-17T01:20:49.719Z,34.00
2018-04-17T01:21:25.013Z,37.40
2018-04-17T01:22:00.220Z,29.70
2018-04-17T01:22:35.733Z,31.00
2018-04-17T01:23:11.269Z,31.90
2018-04-17T01:23:46.763Z,27.00
2018-04-17T01:24:22.013Z,27.20
2018-04-17T01:24:57.309Z,31.60
2018-04-17T01:25:32.818Z,29.50
2018-04-17T01:26:07.916Z,30.30
2018-04-17T01:26:43.333Z,28.30
2018-04-17T01:27:18.690Z,29.60
2018-04-17T01:27:54.121Z,31.60
2018-04-17T01:28:29.399Z,31.50
2018-04-17T01:29:04.858Z,33.80
2018-04-17T01:29:40.040Z,32.30
2018-04-17T01:30:15.695Z,27.80
2018-04-17T01:30:51.683Z,29.10
2018-04-17T01:31:27.359Z,35.40
2018-04-17T01:32:02.966Z,41.70
2018-04-17T01:32:38.200Z,43.40
2018-04-17T01:33:13.387Z,36.60
2018-04-17T01:33:49.288Z,35.70
2018-04-17T01:34:24.798Z,40.50
2018-04-17T01:34:59.911Z,33.20
2018-04-17T01:35:35.301Z,28.50
2018-04-17T01:36:10.510Z,30.60
2018-04-17T01:36:45.915Z,31.40
2018-04-17T01:37:21.282Z,32.60
2018-04-17T01:37:56.633Z,31.70
2018-04-17T01:38:31.964Z,30.20
2018-04-17T01:39:07.223Z,27.80
2018-04-17T01:39:42.736Z,26.60
2018-04-17T01:40:18.130Z,26.70
2018-04-17T01:40:53.337Z,24.80
2018-04-17T01:41:28.629Z,30.50
2018-04-17T01:42:04.048Z,30.40
2018-04-17T01:42:39.346Z,29.80
2018-04-17T01:43:14.543Z,32.30
2018-04-17T01:43:49.838Z,33.70
2018-04-17T01:44:25.066Z,31.60
2018-04-17T01:45:00.357Z,33.90
2018-04-17T01:45:35.713Z,30.90
2018-04-17T01:46:10.919Z,27.20
2018-04-17T01:46:46.247Z,28.60
2018-04-17T01:47:21.538Z,31.50
2018-04-17T01:47:56.778Z,36.90
2018-04-17T01:48:31.971Z,38.40
2018-04-17T01:49:07.208Z,33.70
2018-04-17T01:49:42.981Z,30.50
2018-04-17T01:50:18.544Z,31.50
2018-04-17T01:50:56.153Z,37.60
2018-04-17T01:51:31.674Z,37.30
2018-04-17T01:52:06.947Z,30.20
2018-04-17T01:52:43.184Z,37.10
2018-04-17T01:53:18.670Z,37.40
2018-04-17T01:53:54.116Z,31.40
2018-04-17T01:54:29.500Z,32.50
2018-04-17T01:55:04.607Z,42.50
2018-04-17T01:55:40.288Z,38.40
2018-04-17T01:56:15.694Z,26.90
2018-04-17T01:56:50.779Z,28.40
2018-04-17T01:57:26.200Z,39.50
2018-04-17T01:58:01.501Z,33.10
2018-04-17T01:58:36.708Z,33.30
2018-04-17T01:59:12.197Z,36.90
2018-04-17T01:59:47.507Z,34.40
2018-04-17T02:00:22.895Z,40.00
2018-04-17T02:00:59.816Z,40.60
2018-04-17T02:01:35.084Z,35.30
2018-04-17T02:02:10.684Z,36.60
2018-04-17T02:02:46.123Z,31.50
2018-04-17T02:03:21.330Z,29.60
2018-04-17T02:03:56.510Z,29.90
2018-04-17T02:04:31.824Z,30.10
2018-04-17T02:05:07.812Z,29.50
2018-04-17T02:05:43.031Z,30.30
2018-04-17T02:06:18.535Z,35.00
2018-04-17T02:06:53.745Z,32.80
2018-04-17T02:07:29.136Z,37.70
2018-04-17T02:08:04.778Z,35.30
2018-04-17T02:08:40.358Z,30.60
2018-04-17T02:09:15.679Z,35.60
2018-04-17T02:09:51.393Z,32.10
2018-04-17T02:10:26.726Z,27.40
2018-04-17T02:11:01.935Z,26.50
2018-04-17T02:11:37.172Z,31.00
2018-04-17T02:12:12.453Z,29.80
2018-04-17T02:12:47.864Z,29.00
2018-04-17T02:13:23.255Z,35.10
2018-04-17T02:13:58.510Z,30.10
2018-04-17T02:14:33.698Z,32.30
2018-04-17T02:15:08.944Z,39.00
2018-04-17T02:15:44.480Z,29.30
2018-04-17T02:16:19.905Z,25.60
2018-04-17T02:16:55.174Z,29.50
2018-04-17T02:17:30.691Z,30.20
2018-04-17T02:18:06.093Z,29.40
2018-04-17T02:18:41.513Z,27.20
2018-04-17T02:19:16.892Z,28.10
2018-04-17T02:19:52.455Z,27.90
2018-04-17T02:20:27.824Z,26.80
2018-04-17T02:21:02.942Z,31.10
2018-04-17T02:21:38.731Z,31.90
2018-04-17T02:22:14.043Z,34.50
2018-04-17T02:22:49.340Z,31.60
2018-04-17T02:23:24.683Z,30.00
2018-04-17T02:24:00.062Z,37.40
2018-04-17T02:24:35.501Z,38.70
2018-04-17T02:25:10.923Z,31.90
2018-04-17T02:25:48.140Z,28.80
2018-04-17T02:26:23.542Z,34.20
2018-04-17T02:26:59.349Z,33.60
2018-04-17T02:27:34.324Z,29.10
2018-04-17T02:28:09.860Z,30.10
2018-04-17T02:28:45.260Z,32.60
2018-04-17T02:29:20.463Z,29.90
2018-04-17T02:29:55.759Z,32.90
2018-04-17T02:30:31.210Z,36.40
2018-04-17T02:31:06.408Z,31.00
2018-04-17T02:31:41.750Z,31.50
2018-04-17T02:32:17.221Z,32.30
2018-04-17T02:32:52.537Z,30.80
2018-04-17T02:33:27.659Z,35.20
2018-04-17T02:34:02.800Z,37.00
2018-04-17T02:34:38.104Z,35.20
2018-04-17T02:35:13.422Z,35.30
2018-04-17T02:35:49.004Z,43.20
2018-04-17T02:36:24.422Z,35.10
2018-04-17T02:36:59.781Z,35.10
2018-04-17T02:37:35.421Z,45.10
2018-04-17T02:38:10.628Z,45.10
2018-04-17T02:38:45.833Z,39.10
2018-04-17T02:39:20.952Z,35.10
2018-04-17T02:39:56.165Z,33.90
2018-04-17T02:40:31.552Z,32.10
2018-04-17T02:41:06.986Z,31.30
2018-04-17T02:41:42.271Z,31.20
2018-04-17T02:42:17.692Z,32.10
2018-04-17T02:42:53.055Z,30.10
2018-04-17T02:43:28.909Z,33.60
2018-04-17T02:44:04.389Z,35.80
2018-04-17T02:44:39.821Z,37.50
2018-04-17T02:45:15.003Z,35.00
2018-04-17T02:45:50.634Z,34.90
2018-04-17T02:46:25.925Z,37.40
2018-04-17T02:47:01.329Z,33.30
2018-04-17T02:47:36.670Z,33.30
2018-04-17T02:48:12.070Z,33.40
2018-04-17T02:48:47.370Z,33.50
2018-04-17T02:49:22.788Z,33.50
2018-04-17T02:49:58.193Z,33.30
2018-04-17T02:50:33.401Z,34.40
2018-04-17T02:51:08.486Z,36.00
2018-04-17T02:51:44.213Z,38.90
2018-04-17T02:52:19.487Z,37.40
2018-04-17T02:52:55.004Z,39.80
2018-04-17T02:53:30.427Z,37.10
2018-04-17T02:54:05.736Z,32.30
2018-04-17T02:54:41.013Z,28.00
2018-04-17T02:55:16.368Z,29.60
2018-04-17T02:55:51.652Z,37.00
2018-04-17T02:56:27.188Z,35.80
2018-04-17T02:57:02.663Z,30.60
2018-04-17T02:57:38.467Z,35.10
2018-04-17T02:58:13.763Z,38.60
2018-04-17T02:58:50.308Z,36.80
2018-04-17T02:59:25.909Z,33.20
2018-04-17T03:00:01.333Z,31.80
2018-04-17T03:00:36.708Z,34.80
2018-04-17T03:01:12.020Z,38.90
2018-04-17T03:01:47.129Z,34.90
2018-04-17T03:02:22.582Z,35.90
2018-04-17T03:02:57.982Z,36.40
2018-04-17T03:03:33.433Z,34.10
2018-04-17T03:04:08.916Z,38.80
2018-04-17T03:04:44.325Z,42.10
2018-04-17T03:05:19.604Z,37.50
2018-04-17T03:05:54.804Z,35.10
2018-04-17T03:06:30.392Z,36.20
2018-04-17T03:07:05.733Z,34.70
2018-04-17T03:07:41.066Z,30.40
2018-04-17T03:08:16.334Z,36.80
2018-04-17T03:08:51.554Z,35.30
2018-04-17T03:09:27.002Z,36.30
2018-04-17T03:10:02.304Z,37.00
2018-04-17T03:10:39.815Z,38.10
2018-04-17T03:11:15.107Z,36.10
2018-04-17T03:11:50.659Z,34.00
2018-04-17T03:12:26.170Z,35.30
2018-04-17T03:13:01.393Z,38.40
2018-04-17T03:13:36.924Z,37.10
2018-04-17T03:14:12.025Z,40.90
2018-04-17T03:14:47.401Z,31.00
2018-04-17T03:15:22.519Z,25.00
2018-04-17T03:16:00.407Z,31.00
2018-04-17T03:16:36.009Z,37.60
2018-04-17T03:17:11.502Z,34.30
2018-04-17T03:17:47.015Z,31.70
2018-04-17T03:18:22.352Z,37.00
2018-04-17T03:18:57.784Z,34.40
2018-04-17T03:19:32.871Z,33.50
2018-04-17T03:20:08.098Z,34.80
2018-04-17T03:20:44.195Z,39.10
2018-04-17T03:21:19.705Z,38.00
2018-04-17T03:21:55.280Z,31.90
2018-04-17T03:22:30.510Z,32.00
2018-04-17T03:23:05.993Z,32.70
2018-04-17T03:23:41.258Z,36.30
2018-04-17T03:24:16.740Z,36.70
2018-04-17T03:24:52.150Z,33.60
2018-04-17T03:25:27.320Z,36.60
2018-04-17T03:26:02.653Z,37.20
2018-04-17T03:26:38.162Z,36.80
2018-04-17T03:27:13.492Z,32.80
2018-04-17T03:27:48.962Z,36.30
2018-04-17T03:28:24.365Z,31.50
2018-04-17T03:28:59.890Z,47.20
2018-04-17T03:29:35.300Z,83.60
2018-04-17T03:30:10.473Z,126.80
2018-04-17T03:30:45.999Z,277.30
2018-04-17T03:31:21.495Z,339.30
2018-04-17T03:31:57.088Z,304.70
2018-04-17T03:32:32.357Z,288.70
2018-04-17T03:33:07.804Z,237.50
2018-04-17T03:33:43.104Z,186.10
2018-04-17T03:34:18.533Z,178.40
2018-04-17T03:34:53.933Z,157.60
2018-04-17T03:35:29.443Z,140.60
2018-04-17T03:36:05.008Z,138.30
2018-04-17T03:36:40.618Z,117.70
2018-04-17T03:37:15.819Z,93.50
2018-04-17T03:37:51.259Z,87.50
2018-04-17T03:38:26.546Z,81.70
2018-04-17T03:39:01.880Z,78.00
2018-04-17T03:39:37.811Z,66.90
2018-04-17T03:40:13.467Z,56.00
2018-04-17T03:40:48.834Z,57.20
2018-04-17T03:41:25.262Z,54.30
2018-04-17T03:42:00.534Z,50.00
2018-04-17T03:42:36.333Z,42.50
2018-04-17T03:43:11.630Z,36.40
2018-04-17T03:43:47.849Z,41.80
2018-04-17T03:44:23.039Z,40.90
2018-04-17T03:45:01.771Z,43.10
2018-04-17T03:45:36.962Z,41.70
2018-04-17T03:46:12.167Z,35.80
2018-04-17T03:46:47.387Z,39.60
2018-04-17T03:47:22.913Z,40.50
2018-04-17T03:47:58.115Z,33.60
2018-04-17T03:48:33.523Z,39.20
2018-04-17T03:49:08.951Z,45.00
2018-04-17T03:49:44.060Z,38.20
2018-04-17T03:50:19.241Z,33.10
2018-04-17T03:50:54.593Z,38.80
2018-04-17T03:51:29.982Z,40.00
2018-04-17T03:52:05.203Z,44.80
2018-04-17T03:52:40.468Z,43.50
2018-04-17T03:53:15.902Z,38.90
2018-04-17T03:53:51.192Z,41.00
2018-04-17T03:54:26.236Z,40.00
2018-04-17T03:55:01.616Z,40.60
2018-04-17T03:55:37.524Z,41.70
2018-04-17T03:56:12.605Z,43.00
2018-04-17T03:56:48.020Z,40.60
2018-04-17T03:57:23.689Z,43.70
2018-04-17T03:57:59.233Z,36.90
2018-04-17T03:58:34.765Z,38.80
2018-04-17T03:59:10.112Z,37.70
2018-04-17T03:59:45.611Z,39.60
2018-04-17T04:00:20.839Z,40.00
2018-04-17T04:00:56.137Z,37.60
2018-04-17T04:01:31.369Z,39.80
2018-04-17T04:02:07.972Z,51.80
2018-04-17T04:02:44.229Z,46.80
2018-04-17T04:03:19.464Z,40.00
2018-04-17T04:03:54.882Z,39.00
2018-04-17T04:04:30.397Z,33.00
2018-04-17T04:05:05.819Z,38.50
2018-04-17T04:05:43.911Z,41.40
2018-04-17T04:06:19.140Z,34.30
2018-04-17T04:06:55.128Z,36.30
2018-04-17T04:07:30.437Z,37.10
2018-04-17T04:08:05.814Z,33.30
2018-04-17T04:08:41.178Z,34.90
2018-04-17T04:09:16.594Z,38.40
2018-04-17T04:09:51.806Z,46.10
2018-04-17T04:10:27.292Z,38.40
2018-04-17T04:11:03.215Z,41.70
2018-04-17T04:11:38.623Z,38.30
2018-04-17T04:12:13.923Z,33.30
2018-04-17T04:12:49.200Z,35.10
2018-04-17T04:13:24.846Z,42.60
2018-04-17T04:14:00.276Z,40.70
2018-04-17T04:14:35.704Z,34.70
2018-04-17T04:15:11.117Z,38.00
2018-04-17T04:15:47.727Z,38.60
2018-04-17T04:16:23.139Z,38.60
2018-04-17T04:16:58.274Z,39.50
2018-04-17T04:17:33.557Z,38.80
2018-04-17T04:18:08.774Z,39.00
2018-04-17T04:18:43.969Z,36.40
2018-04-17T04:19:19.391Z,35.80
2018-04-17T04:19:54.609Z,36.10
2018-04-17T04:20:29.606Z,40.90
2018-04-17T04:21:04.814Z,36.50
2018-04-17T04:21:40.129Z,39.90
2018-04-17T04:22:15.344Z,41.50
2018-04-17T04:22:50.787Z,38.30
2018-04-17T04:23:26.674Z,34.90
2018-04-17T04:24:02.301Z,38.10
2018-04-17T04:24:37.513Z,39.50
2018-04-17T04:25:14.343Z,39.80
2018-04-17T04:25:50.618Z,40.40
2018-04-17T04:26:25.915Z,40.30
2018-04-17T04:27:01.425Z,38.10
2018-04-17T04:27:37.962Z,37.50
2018-04-17T04:28:13.229Z,36.10
2018-04-17T04:28:48.455Z,39.80
2018-04-17T04:29:23.624Z,39.60
2018-04-17T04:29:58.794Z,40.10
2018-04-17T04:30:34.200Z,40.30
2018-04-17T04:31:09.835Z,34.60
2018-04-17T04:31:45.374Z,31.70
2018-04-17T04:32:20.716Z,44.40
2018-04-17T04:32:56.110Z,47.50
2018-04-17T04:33:31.524Z,43.70
2018-04-17T04:34:06.893Z,39.20
2018-04-17T04:34:42.131Z,44.20
2018-04-17T04:35:17.749Z,45.30
2018-04-17T04:35:52.874Z,43.30
2018-04-17T04:36:28.863Z,40.90
2018-04-17T04:37:04.308Z,37.00
2018-04-17T04:37:39.591Z,34.00
2018-04-17T04:38:14.891Z,38.70
2018-04-17T04:38:50.075Z,41.80
2018-04-17T04:39:25.671Z,38.70
2018-04-17T04:40:00.994Z,44.90
2018-04-17T04:40:38.145Z,35.20
2018-04-17T04:41:13.872Z,34.50
2018-04-17T04:41:49.531Z,30.90
2018-04-17T04:42:27.033Z,31.60
2018-04-17T04:43:02.548Z,38.50
2018-04-17T04:43:38.028Z,45.50
2018-04-17T04:44:13.551Z,42.80
2018-04-17T04:44:50.386Z,38.60
2018-04-17T04:45:25.700Z,42.90
2018-04-17T04:46:01.117Z,46.80
2018-04-17T04:46:36.430Z,48.70
2018-04-17T04:47:11.609Z,48.00
2018-04-17T04:47:47.020Z,47.00
2018-04-17T04:48:22.605Z,46.60
2018-04-17T04:48:58.223Z,46.90
2018-04-17T04:49:33.606Z,36.90
2018-04-17T04:50:08.875Z,41.60
2018-04-17T04:50:44.180Z,42.40
2018-04-17T04:51:20.203Z,45.10
2018-04-17T04:51:55.608Z,42.70
2018-04-17T04:52:31.562Z,40.20
2018-04-17T04:53:07.582Z,40.30
2018-04-17T04:53:43.287Z,45.70
2018-04-17T04:54:18.549Z,43.20
2018-04-17T04:54:56.418Z,47.50
2018-04-17T04:55:31.803Z,48.90
2018-04-17T04:56:07.330Z,47.20
2018-04-17T04:56:42.496Z,52.20
2018-04-17T04:57:17.733Z,47.40
2018-04-17T04:57:52.911Z,43.30
2018-04-17T04:58:28.135Z,39.10
2018-04-17T04:59:03.245Z,42.70
2018-04-17T04:59:38.663Z,46.20
2018-04-17T05:00:13.991Z,40.00
2018-04-17T05:00:52.320Z,40.30
2018-04-17T05:01:27.826Z,41.70
2018-04-17T05:02:03.034Z,39.00
2018-04-17T05:02:39.341Z,34.80
2018-04-17T05:03:14.736Z,41.90
2018-04-17T05:03:50.221Z,43.80
2018-04-17T05:04:25.554Z,45.70
2018-04-17T05:05:04.562Z,48.90
2018-04-17T05:05:40.209Z,43.70
2018-04-17T05:06:15.695Z,42.20
2018-04-17T05:06:51.937Z,44.10
2018-04-17T05:07:27.221Z,45.30
2018-04-17T05:08:03.359Z,41.30
2018-04-17T05:08:38.650Z,46.50
2018-04-17T05:09:14.059Z,42.70
2018-04-17T05:09:50.105Z,41.30
2018-04-17T05:10:25.545Z,38.80
2018-04-17T05:11:00.861Z,40.80
2018-04-17T05:11:36.296Z,40.10
2018-04-17T05:12:11.706Z,38.20
2018-04-17T05:12:48.080Z,35.20
2018-04-17T05:13:23.515Z,38.50
2018-04-17T05:13:58.971Z,49.60
2018-04-17T05:14:35.260Z,41.80
2018-04-17T05:15:10.416Z,34.70
2018-04-17T05:15:46.425Z,36.50
2018-04-17T05:16:21.835Z,38.60
2018-04-17T05:16:57.143Z,39.80
2018-04-17T05:17:32.461Z,35.60
2018-04-17T05:18:07.650Z,41.70
2018-04-17T05:18:43.284Z,37.20
2018-04-17T05:19:18.571Z,40.80
2018-04-17T05:19:54.197Z,38.10
2018-04-17T05:20:29.317Z,36.00
2018-04-17T05:21:04.643Z,35.20
2018-04-17T05:21:40.233Z,37.60
2018-04-17T05:22:15.963Z,33.40
2018-04-17T05:22:51.135Z,35.30
2018-04-17T05:23:26.946Z,38.00
2018-04-17T05:24:02.239Z,37.30
2018-04-17T05:24:37.742Z,36.10
2018-04-17T05:25:13.091Z,38.80
2018-04-17T05:25:48.921Z,36.00
2018-04-17T05:26:24.301Z,33.00
2018-04-17T05:26:59.864Z,35.20
2018-04-17T05:27:34.955Z,42.80
2018-04-17T05:28:10.216Z,40.20
2018-04-17T05:28:45.725Z,35.10
2018-04-17T05:29:20.952Z,30.30
2018-04-17T05:29:56.234Z,31.50
2018-04-17T05:30:31.591Z,29.70
2018-04-17T05:31:07.289Z,28.90
2018-04-17T05:31:42.602Z,28.90
2018-04-17T05:32:18.015Z,31.50
2018-04-17T05:32:53.466Z,29.10
2018-04-17T05:33:28.656Z,33.20
2018-04-17T05:34:03.881Z,31.70
2018-04-17T05:34:39.510Z,28.80
2018-04-17T05:35:17.351Z,32.20
2018-04-17T05:35:52.548Z,31.30
2018-04-17T05:36:31.167Z,35.50
2018-04-17T05:37:06.484Z,30.20
2018-04-17T05:37:41.846Z,28.80
2018-04-17T05:38:17.321Z,32.50
2018-04-17T05:38:52.742Z,30.80
2018-04-17T05:39:28.006Z,26.00
2018-04-17T05:40:03.688Z,30.10
2018-04-17T05:40:41.412Z,33.30
2018-04-17T05:41:16.625Z,28.00
2018-04-17T05:41:52.220Z,26.00
2018-04-17T05:42:27.421Z,28.20
2018-04-17T05:43:02.508Z,31.10
2018-04-17T05:43:38.022Z,27.60
2018-04-17T05:44:13.124Z,27.90
2018-04-17T05:44:51.744Z,26.60
2018-04-17T05:45:27.475Z,24.60
2018-04-17T05:46:03.002Z,27.00
2018-04-17T05:46:38.979Z,34.50
2018-04-17T05:47:14.503Z,32.10
2018-04-17T05:47:49.688Z,28.80
2018-04-17T05:48:25.048Z,27.40
2018-04-17T05:49:00.659Z,29.10
2018-04-17T05:49:36.177Z,33.40
2018-04-17T05:50:11.635Z,30.20
2018-04-17T05:50:47.122Z,25.60
2018-04-17T05:51:22.639Z,26.40
2018-04-17T05:51:57.983Z,31.30
2018-04-17T05:52:33.489Z,29.70
2018-04-17T05:53:09.137Z,29.00
2018-04-17T05:53:45.649Z,29.10
2018-04-17T05:54:21.068Z,29.90
2018-04-17T05:54:56.347Z,29.00
2018-04-17T05:55:31.621Z,26.80
2018-04-17T05:56:07.106Z,31.10
2018-04-17T05:56:42.331Z,26.10
2018-04-17T05:57:17.720Z,30.40
2018-04-17T05:57:53.168Z,29.40
2018-04-17T05:58:28.575Z,23.40
2018-04-17T05:59:03.893Z,23.30
2018-04-17T05:59:39.179Z,26.30
2018-04-17T06:00:15.682Z,23.30
2018-04-17T06:00:52.991Z,29.90
2018-04-17T06:01:28.235Z,29.20
2018-04-17T06:02:03.421Z,21.10
2018-04-17T06:02:38.935Z,28.90
2018-04-17T06:03:14.337Z,32.90
2018-04-17T06:03:51.575Z,26.50
2018-04-17T06:04:26.816Z,22.20
2018-04-17T06:05:02.334Z,24.50
2018-04-17T06:05:40.771Z,30.30
2018-04-17T06:06:15.885Z,28.30
2018-04-17T06:06:51.308Z,23.90
2018-04-17T06:07:26.821Z,28.20
2018-04-17T06:08:02.000Z,30.30
2018-04-17T06:08:38.455Z,28.10
2018-04-17T06:09:16.468Z,27.20
2018-04-17T06:09:51.789Z,29.80
2018-04-17T06:10:28.579Z,32.10
2018-04-17T06:11:04.107Z,34.30
2018-04-17T06:11:39.397Z,35.20
2018-04-17T06:12:14.924Z,28.50
2018-04-17T06:12:50.124Z,27.30
2018-04-17T06:13:25.541Z,29.70
2018-04-17T06:14:00.818Z,28.60
2018-04-17T06:14:36.331Z,28.70
2018-04-17T06:15:11.652Z,26.00
2018-04-17T06:15:52.702Z,28.80
2018-04-17T06:16:30.091Z,29.70
2018-04-17T06:17:08.110Z,26.60
2018-04-17T06:17:43.321Z,31.10
2018-04-17T06:20:21.193Z,29.30
2018-04-17T06:20:56.528Z,29.80
2018-04-17T06:21:31.689Z,30.50
2018-04-17T06:22:07.003Z,26.20
2018-04-17T06:22:42.377Z,24.50
2018-04-17T06:23:17.709Z,24.70
2018-04-17T06:23:53.243Z,25.00
2018-04-17T06:24:28.748Z,21.80
2018-04-17T06:25:04.422Z,25.10
2018-04-17T06:25:39.845Z,23.30
2018-04-17T06:26:15.150Z,23.20
2018-04-17T06:26:50.581Z,26.10
2018-04-17T06:27:25.666Z,24.30
2018-04-17T06:28:01.270Z,22.20
2018-04-17T06:28:36.378Z,22.80
2018-04-17T06:29:15.104Z,24.90
2018-04-17T06:29:50.377Z,24.20
2018-04-17T06:30:25.905Z,22.70
2018-04-17T06:31:01.095Z,26.70
2018-04-17T06:31:36.117Z,27.40
2018-04-17T06:32:15.090Z,26.50
2018-04-17T06:32:50.204Z,31.20
2018-04-17T06:33:25.617Z,28.00
2018-04-17T06:34:01.028Z,22.10
2018-04-17T06:34:36.205Z,27.00
2018-04-17T06:35:11.505Z,27.30
2018-04-17T06:35:46.886Z,25.40
2018-04-17T06:36:22.208Z,29.20
2018-04-17T06:36:57.628Z,27.30
2018-04-17T06:37:32.921Z,24.10
2018-04-17T06:38:08.526Z,23.40
2018-04-17T06:38:43.930Z,20.70
2018-04-17T06:39:19.111Z,25.20
2018-04-17T06:39:54.411Z,31.30
2018-04-17T06:40:32.808Z,32.80
2018-04-17T06:41:08.051Z,26.30
2018-04-17T06:41:45.623Z,22.10
2018-04-17T06:42:20.733Z,21.10
2018-04-17T06:42:56.116Z,24.20
2018-04-17T06:43:31.761Z,26.40
2018-04-17T06:44:07.285Z,28.70
2018-04-17T06:44:43.388Z,27.20
2018-04-17T06:45:19.010Z,26.20
2018-04-17T06:45:54.135Z,29.70
2018-04-17T06:46:29.325Z,23.90
2018-04-17T06:47:04.762Z,26.70
2018-04-17T06:47:40.382Z,28.60
2018-04-17T06:48:16.862Z,30.20
2018-04-17T06:48:52.247Z,31.50
2018-04-17T06:49:27.706Z,30.40
2018-04-17T06:50:03.019Z,24.40
2018-04-17T06:50:41.273Z,29.40
2018-04-17T06:51:17.682Z,32.00
2018-04-17T06:51:53.312Z,27.80
2018-04-17T06:52:28.418Z,24.50
2018-04-17T06:53:03.665Z,29.30
2018-04-17T06:53:39.888Z,26.40
2018-04-17T06:54:15.438Z,29.60
2018-04-17T06:54:50.727Z,32.60
2018-04-17T06:55:26.070Z,29.50
2018-04-17T06:56:01.262Z,29.20
2018-04-17T06:56:36.681Z,25.70
2018-04-17T06:57:11.787Z,30.10
2018-04-17T06:57:47.121Z,28.90
2018-04-17T06:58:22.636Z,25.60
2018-04-17T06:58:58.179Z,28.60
2018-04-17T06:59:33.479Z,29.60
2018-04-17T07:00:08.800Z,29.30
2018-04-17T07:00:46.116Z,26.80
2018-04-17T07:01:23.151Z,26.70
2018-04-17T07:01:58.529Z,27.70
2018-04-17T07:02:33.940Z,31.50
2018-04-17T07:03:09.634Z,29.50
2018-04-17T07:03:45.066Z,27.10
2018-04-17T07:04:20.658Z,29.80
2018-04-17T07:04:56.087Z,30.10
2018-04-17T07:05:31.304Z,27.50
2018-04-17T07:06:06.525Z,21.00
2018-04-17T07:06:42.024Z,22.60
2018-04-17T07:07:17.481Z,28.60
2018-04-17T07:07:53.119Z,28.90
2018-04-17T07:08:28.463Z,32.30
2018-04-17T07:09:04.156Z,29.60
2018-04-17T07:09:39.381Z,26.50
2018-04-17T07:10:15.002Z,29.60
2018-04-17T07:10:51.239Z,29.30
2018-04-17T07:11:26.757Z,28.10
2018-04-17T07:12:01.978Z,29.40
2018-04-17T07:12:37.476Z,28.80
2018-04-17T07:13:12.784Z,28.60
2018-04-17T07:13:48.895Z,26.50
2018-04-17T07:14:24.123Z,32.20
2018-04-17T07:14:59.338Z,35.30
2018-04-17T07:15:38.449Z,28.90
2018-04-17T07:16:18.148Z,30.80
2018-04-17T07:16:53.685Z,38.20
2018-04-17T07:17:28.840Z,32.20
2018-04-17T07:18:04.281Z,28.20
2018-04-17T07:18:39.702Z,25.10
2018-04-17T07:19:14.829Z,28.10
2018-04-17T07:19:50.261Z,26.80
2018-04-17T07:20:25.471Z,28.90
2018-04-17T07:21:01.365Z,33.80
2018-04-17T07:21:36.877Z,35.50
2018-04-17T07:22:12.306Z,29.80
2018-04-17T07:22:47.728Z,29.70
2018-04-17T07:23:23.051Z,29.70
2018-04-17T07:23:58.691Z,33.60
2018-04-17T07:24:34.088Z,32.90
2018-04-17T07:25:09.601Z,27.10
2018-04-17T07:25:45.299Z,28.10
2018-04-17T07:26:20.767Z,30.90
2018-04-17T07:26:56.077Z,29.40
2018-04-17T07:27:31.500Z,29.60
2018-04-17T07:28:07.995Z,28.40
2018-04-17T07:28:43.753Z,28.40
2018-04-17T07:29:19.047Z,30.80
2018-04-17T07:29:54.581Z,33.20
2018-04-17T07:30:30.049Z,37.50
2018-04-17T07:31:05.678Z,32.40
2018-04-17T07:31:41.096Z,29.10
2018-04-17T07:32:16.409Z,31.80
2018-04-17T07:32:52.005Z,28.90
2018-04-17T07:33:27.476Z,30.90
2018-04-17T07:34:03.051Z,29.60
2018-04-17T07:34:39.639Z,27.90
2018-04-17T07:35:14.889Z,32.90
2018-04-17T07:35:50.111Z,28.20
2018-04-17T07:36:25.621Z,26.60
2018-04-17T07:37:01.043Z,29.50
2018-04-17T07:37:38.667Z,28.00
2018-04-17T07:38:14.096Z,26.70
2018-04-17T07:38:49.411Z,27.50
2018-04-17T07:39:24.965Z,24.40
2018-04-17T07:40:00.449Z,26.00